Accueil
METAR-TAF:

METAR-TAF

Aéroports :

Aéroport de Bastia-Poretta

Bastia, France

latitude: 42-33N, longitude: 009-29E, altitude: 8 m

Observation

Le bulletin a été fait il y a 44 minutes, à 11:30 UTC
Vent 7 kt de est/sud-est, variant entre est et sud/sud-est
Température 29°C
Humidité 62%
Pression 1015 hPa
Visibilité 10 km ou plus
pas de nuages en-dessous de 1500 mètres et pas de cumulonimbus.

METAR: LFKB 181130Z AUTO 11007KT 080V150 CAVOK 29/21 Q1015 NOSIG

Heure: 14:14 (12:14 UTC)

Prévision

Le bulletin a été fait il y a 4 heures et 14 minutes, à 08:00 UTC
Prévision valable du 18 à 09 UTC au 19 à 09 UTC
Vent 10 kt de est/sud-est
Visibilité 10 km ou plus
pas de nuages en-dessous de 1500 mètres et pas de cumulonimbus.
Evoluant progressivement
du 18 à 18 UTC au 18 à 20 UTC
Vent 3 kt de direction variable

TAF: LFKB 180800Z 1809/1909 12010KT CAVOK TX31/1812Z TN21/1904Z BECMG 1818/1820 VRB03KT

Observations et prévisions météorologiques de plus de 4000 aéroports (messages METAR et TAF).

Les stations disponibles sont représentées par des disques jaunes et rouges sur la carte.

Passer la souris dessus pour voir le nom de la station.

Cliquer dessus pour voir les observations et prévisions météorologiques.

Pour changer de carte: cliquez sur les boutons verts avec une croix noire pour zoomer, sur le bouton vert avec un tiret pour effectuer un zoom arrière, ou sur les flèches vertes pour les cartes adjacentes.


METAR-TAF: